Time;durP1;ratioP1;P1;durP2;ratioP2;P2;SDS_P1;SDS_P2;PMS_P1;PMS_P2;Temp;Humidity;BMP_temperature;BMP_pressure;BME280_temperature;BME280_humidity;BME280_pressure;Samples;Min_cycle;Max_cycle;Signal;HPM_P1;HPM_P2
2022/04/09 00:00:59;;;;;;;2.47;2.27;;;6.10;99.90;;;;;;4998089;28;20940;-62
2022/04/09 00:03:26;;;;;;;3.10;2.30;;;6.10;99.90;;;;;;4999458;28;20441;-58
2022/04/09 00:05:55;;;;;;;2.57;2.17;;;6.10;99.90;;;;;;4998503;28;20442;-62
2022/04/09 00:08:22;;;;;;;3.37;1.60;;;6.10;99.90;;;;;;4997894;28;20493;-55
2022/04/09 00:10:49;;;;;;;5.23;1.80;;;6.10;99.90;;;;;;4997891;28;20816;-56
2022/04/09 00:13:19;;;;;;;3.90;1.87;;;6.10;99.90;;;;;;4998031;28;20442;-58
2022/04/09 00:15:46;;;;;;;3.30;2.60;;;6.00;99.90;;;;;;4997985;28;20465;-64
2022/04/09 00:18:15;;;;;;;3.10;2.67;;;5.90;99.90;;;;;;4999007;28;20451;-59
2022/04/09 00:20:42;;;;;;;4.90;2.20;;;5.90;99.90;;;;;;4998461;28;20446;-57
2022/04/09 00:23:10;;;;;;;2.23;2.03;;;5.90;99.90;;;;;;4997738;28;20445;-58
2022/04/09 00:25:37;;;;;;;7.20;2.70;;;5.90;99.90;;;;;;4997616;28;20469;-59
2022/04/09 00:28:04;;;;;;;7.53;2.93;;;5.90;99.90;;;;;;4997412;28;20485;-58
2022/04/09 00:30:32;;;;;;;6.80;2.57;;;5.90;99.90;;;;;;4997866;28;20454;-63
2022/04/09 00:32:59;;;;;;;5.20;2.27;;;5.90;99.90;;;;;;4997411;28;20476;-61
2022/04/09 00:35:25;;;;;;;2.50;2.00;;;5.90;99.90;;;;;;4997531;28;20474;-59
2022/04/09 00:37:52;;;;;;;4.90;2.77;;;5.90;99.90;;;;;;4997620;28;20952;-58
2022/04/09 00:40:26;;;;;;;3.00;2.37;;;5.90;99.90;;;;;;4997375;28;20481;-62
2022/04/09 00:42:53;;;;;;;2.67;2.37;;;5.90;99.90;;;;;;4997545;28;20438;-62
2022/04/09 00:45:19;;;;;;;3.00;1.93;;;5.90;99.90;;;;;;4998024;28;20485;-65
2022/04/09 00:47:48;;;;;;;2.77;1.97;;;5.90;99.90;;;;;;4997155;28;20488;-63
2022/04/09 00:50:15;;;;;;;6.70;2.13;;;5.90;99.90;;;;;;4997369;28;20481;-58
2022/04/09 00:52:47;;;;;;;4.13;3.23;;;5.80;99.90;;;;;;4997766;28;20461;-63
2022/04/09 00:55:14;;;;;;;2.20;1.97;;;5.80;99.90;;;;;;4997800;28;20470;-58
2022/04/09 00:57:45;;;;;;;4.20;2.70;;;5.80;99.90;;;;;;4998292;28;20450;-67
2022/04/09 01:00:14;;;;;;;3.63;2.10;;;5.70;99.90;;;;;;4997397;28;20532;-59
2022/04/09 01:02:42;;;;;;;4.30;2.07;;;5.70;99.90;;;;;;4997027;28;20446;-58
2022/04/09 01:05:11;;;;;;;3.93;2.33;;;5.70;99.90;;;;;;4997116;28;20477;-58
2022/04/09 01:07:39;;;;;;;3.13;2.73;;;5.60;99.90;;;;;;4997123;28;20482;-58
2022/04/09 01:10:08;;;;;;;3.73;2.37;;;5.60;99.90;;;;;;4996938;28;20469;-58
2022/04/09 01:12:36;;;;;;;3.93;2.63;;;5.70;99.90;;;;;;4996924;28;20827;-63
2022/04/09 01:15:04;;;;;;;3.40;2.30;;;5.70;99.90;;;;;;4996799;28;20482;-59
2022/04/09 01:17:31;;;;;;;2.07;1.87;;;5.60;99.90;;;;;;4996466;28;20441;-59
2022/04/09 01:19:58;;;;;;;7.10;1.90;;;5.60;99.90;;;;;;4996482;28;20955;-58
2022/04/09 01:22:26;;;;;;;4.77;1.80;;;5.60;99.90;;;;;;4996595;28;20464;-65
2022/04/09 01:24:53;;;;;;;7.13;2.03;;;5.60;99.90;;;;;;4996480;28;20505;-56
2022/04/09 01:27:19;;;;;;;2.47;1.70;;;5.60;99.90;;;;;;4997060;28;20500;-60
2022/04/09 01:29:46;;;;;;;1.80;1.47;;;5.70;99.90;;;;;;4996480;28;20812;-59
2022/04/09 01:32:13;;;;;;;4.13;2.30;;;5.70;99.90;;;;;;4996718;28;20442;-63
2022/04/09 01:34:40;;;;;;;11.10;2.00;;;5.60;99.90;;;;;;4996115;28;20517;-58
2022/04/09 01:37:07;;;;;;;4.70;1.83;;;5.60;99.90;;;;;;4996069;28;20450;-59
2022/04/09 01:39:35;;;;;;;1.77;1.57;;;5.60;99.90;;;;;;4996479;28;20976;-62
2022/04/09 01:42:02;;;;;;;2.50;1.83;;;5.60;99.90;;;;;;4996633;28;20500;-60
2022/04/09 01:44:29;;;;;;;3.57;1.80;;;5.60;99.90;;;;;;4997089;28;20508;-59
2022/04/09 01:46:55;;;;;;;1.57;1.47;;;5.60;99.90;;;;;;4996521;28;20500;-58
2022/04/09 01:49:22;;;;;;;5.80;3.10;;;5.50;99.90;;;;;;4996374;28;20457;-58
2022/04/09 01:51:50;;;;;;;10.03;2.57;;;5.60;99.90;;;;;;4997308;28;20437;-58
2022/04/09 01:54:16;;;;;;;3.80;1.60;;;5.60;99.90;;;;;;4997422;28;20446;-61
2022/04/09 01:56:44;;;;;;;4.07;1.60;;;5.50;99.90;;;;;;4996400;28;20450;-58
2022/04/09 01:59:11;;;;;;;1.97;1.63;;;5.50;99.90;;;;;;4995299;28;20561;-59
2022/04/09 02:01:38;;;;;;;4.80;1.90;;;5.50;99.90;;;;;;4995739;28;20453;-60
2022/04/09 02:04:05;;;;;;;3.73;1.60;;;5.50;99.90;;;;;;4995789;28;20445;-58
2022/04/09 02:06:32;;;;;;;4.27;2.23;;;5.50;99.90;;;;;;4995926;28;20534;-56
2022/04/09 02:08:59;;;;;;;11.10;1.80;;;5.50;99.90;;;;;;4996279;28;20508;-59
2022/04/09 02:11:26;;;;;;;1.60;1.50;;;5.50;99.90;;;;;;4995757;28;20449;-55
2022/04/09 02:13:54;;;;;;;8.60;2.30;;;5.50;99.90;;;;;;4996009;28;20469;-64
2022/04/09 02:16:21;;;;;;;2.80;1.93;;;5.50;99.90;;;;;;4996432;28;20461;-58
2022/04/09 02:18:48;;;;;;;4.00;2.00;;;5.50;99.90;;;;;;4995674;28;20579;-58
2022/04/09 02:21:14;;;;;;;3.37;2.53;;;5.40;99.90;;;;;;4995495;28;20804;-60
2022/04/09 02:23:41;;;;;;;3.70;2.10;;;5.50;99.90;;;;;;4995463;28;20454;-57
2022/04/09 02:26:08;;;;;;;13.33;2.37;;;5.40;99.90;;;;;;4995511;28;20488;-61
2022/04/09 02:28:35;;;;;;;3.83;1.80;;;5.40;99.90;;;;;;4995328;28;20489;-59
2022/04/09 02:31:03;;;;;;;2.77;2.10;;;5.40;99.90;;;;;;4995842;28;20466;-62
2022/04/09 02:33:30;;;;;;;6.53;2.73;;;5.30;99.90;;;;;;4995387;28;20805;-61
2022/04/09 02:35:57;;;;;;;9.20;2.57;;;5.30;99.90;;;;;;4995447;28;20477;-59
2022/04/09 02:38:25;;;;;;;1.87;1.70;;;5.30;99.90;;;;;;4995527;28;20458;-58
2022/04/09 02:40:52;;;;;;;1.90;1.50;;;5.30;99.90;;;;;;4995432;28;20473;-57
2022/04/09 02:43:18;;;;;;;4.03;1.90;;;5.30;99.90;;;;;;4996077;28;20450;-61
2022/04/09 02:45:47;;;;;;;3.20;2.17;;;5.30;99.90;;;;;;4996731;28;20481;-66
2022/04/09 02:48:16;;;;;;;7.33;2.33;;;5.30;99.90;;;;;;4996777;28;20490;-62
2022/04/09 02:50:42;;;;;;;2.67;1.90;;;5.30;99.90;;;;;;4995978;28;20481;-62
2022/04/09 02:53:10;;;;;;;3.07;2.10;;;5.20;99.90;;;;;;4995406;28;20485;-59
2022/04/09 02:55:37;;;;;;;5.40;2.10;;;5.20;99.90;;;;;;4995201;28;20480;-56
2022/04/09 02:58:04;;;;;;;1.70;1.57;;;5.10;99.90;;;;;;4995586;28;20778;-63
2022/04/09 03:00:31;;;;;;;8.03;1.73;;;5.00;99.90;;;;;;4995475;28;20485;-59
2022/04/09 03:02:58;;;;;;;5.33;2.00;;;5.00;99.90;;;;;;4995571;28;20446;-58
2022/04/09 03:05:26;;;;;;;4.63;2.17;;;5.00;99.90;;;;;;4995161;28;20540;-59
2022/04/09 03:07:52;;;;;;;4.07;2.20;;;5.00;99.90;;;;;;4995273;28;20501;-59
2022/04/09 03:10:19;;;;;;;10.17;2.97;;;5.00;99.90;;;;;;4996001;28;20539;-59
2022/04/09 03:12:47;;;;;;;4.30;1.80;;;5.10;99.90;;;;;;4999268;28;20959;-63
2022/04/09 03:15:15;;;;;;;2.97;1.70;;;5.00;99.90;;;;;;4999074;28;20453;-59
2022/04/09 03:17:42;;;;;;;5.83;2.13;;;4.90;99.90;;;;;;4999148;28;20438;-59
2022/04/09 03:20:10;;;;;;;1.83;1.53;;;4.90;99.90;;;;;;4998892;28;20512;-59
2022/04/09 03:22:38;;;;;;;6.30;2.07;;;4.90;99.90;;;;;;4999029;28;20889;-59
2022/04/09 03:25:06;;;;;;;6.30;2.23;;;4.90;99.90;;;;;;4998850;28;20442;-59
2022/04/09 03:27:33;;;;;;;2.57;1.90;;;4.90;99.90;;;;;;4998629;28;20484;-59
2022/04/09 03:29:59;;;;;;;3.47;1.93;;;4.80;99.90;;;;;;4999351;28;20442;-63
2022/04/09 03:32:26;;;;;;;10.93;3.00;;;4.80;99.90;;;;;;4998877;28;20975;-59
2022/04/09 03:34:53;;;;;;;3.10;2.03;;;4.70;99.90;;;;;;4998821;28;20928;-59
2022/04/09 03:37:19;;;;;;;3.83;2.20;;;4.70;99.90;;;;;;4998779;28;20446;-62
2022/04/09 03:39:47;;;;;;;11.90;2.00;;;4.70;99.90;;;;;;5000029;28;20445;-62
2022/04/09 03:42:14;;;;;;;3.57;2.13;;;4.60;99.90;;;;;;4999886;28;20485;-62
2022/04/09 03:44:41;;;;;;;4.50;2.30;;;4.60;99.90;;;;;;4998643;28;20449;-62
2022/04/09 03:47:07;;;;;;;3.67;1.97;;;4.60;99.90;;;;;;4998613;28;21051;-63
2022/04/09 03:49:34;;;;;;;4.73;2.20;;;4.60;99.90;;;;;;4998662;28;20481;-64
2022/04/09 03:52:01;;;;;;;2.37;2.13;;;4.60;99.90;;;;;;4998351;28;20446;-62
2022/04/09 03:54:32;;;;;;;2.83;2.33;;;4.60;99.90;;;;;;4998433;28;20449;-62
2022/04/09 03:57:00;;;;;;;6.70;1.90;;;4.60;99.90;;;;;;4998003;28;20447;-63
2022/04/09 03:59:26;;;;;;;4.97;2.67;;;4.50;99.90;;;;;;4998522;28;20481;-62
2022/04/09 04:01:53;;;;;;;2.10;1.73;;;4.50;99.90;;;;;;4998347;28;20469;-61
2022/04/09 04:04:21;;;;;;;4.17;2.30;;;4.50;99.90;;;;;;4998386;28;20453;-61
2022/04/09 04:06:48;;;;;;;4.33;2.17;;;4.50;99.90;;;;;;4998087;28;20474;-63
2022/04/09 04:09:16;;;;;;;4.83;2.70;;;4.50;99.90;;;;;;4997798;28;20488;-61
2022/04/09 04:11:43;;;;;;;2.47;2.10;;;4.50;99.90;;;;;;4997952;28;20490;-62
2022/04/09 04:14:12;;;;;;;3.37;2.00;;;4.50;99.90;;;;;;4997889;28;20509;-62
2022/04/09 04:16:39;;;;;;;5.40;1.67;;;4.40;99.90;;;;;;4997944;28;20484;-62
2022/04/09 04:19:06;;;;;;;5.10;2.40;;;4.30;99.90;;;;;;4997690;28;20500;-62
2022/04/09 04:21:32;;;;;;;4.00;1.97;;;4.30;99.90;;;;;;4997035;28;20543;-62
2022/04/09 04:23:59;;;;;;;7.40;3.07;;;4.30;99.90;;;;;;4997564;28;20441;-64
2022/04/09 04:26:26;;;;;;;5.13;2.00;;;4.30;99.90;;;;;;4997614;28;20474;-62
2022/04/09 04:28:52;;;;;;;9.67;2.50;;;4.30;99.90;;;;;;4997677;28;20504;-62
2022/04/09 04:31:20;;;;;;;4.67;1.80;;;4.30;99.90;;;;;;4997555;28;20797;-60
2022/04/09 04:33:47;;;;;;;4.77;2.13;;;4.30;99.90;;;;;;4997348;28;20468;-62
2022/04/09 04:36:14;;;;;;;5.83;2.10;;;4.30;99.90;;;;;;4997710;28;20473;-62
2022/04/09 04:38:41;;;;;;;2.23;2.03;;;4.30;99.90;;;;;;4997689;28;20450;-61
2022/04/09 04:41:08;;;;;;;3.43;2.40;;;4.20;99.90;;;;;;4997732;28;20478;-61
2022/04/09 04:43:34;;;;;;;4.23;2.37;;;4.30;99.90;;;;;;4997585;28;20462;-63
2022/04/09 04:46:01;;;;;;;3.33;2.23;;;4.20;99.90;;;;;;4997102;28;20473;-66
2022/04/09 04:48:29;;;;;;;6.77;1.93;;;4.20;99.90;;;;;;4997140;28;20465;-62
2022/04/09 04:50:56;;;;;;;2.60;2.10;;;4.20;99.90;;;;;;4997373;28;20453;-61
2022/04/09 04:53:22;;;;;;;3.20;2.20;;;4.20;99.90;;;;;;4997464;28;20434;-63
2022/04/09 04:55:49;;;;;;;3.80;1.80;;;4.30;99.90;;;;;;4997567;28;20466;-64
2022/04/09 04:58:19;;;;;;;3.83;2.13;;;4.30;99.90;;;;;;4997497;28;20574;-61
2022/04/09 05:00:48;;;;;;;9.40;2.70;;;4.30;99.90;;;;;;4997254;28;21045;-62
2022/04/09 05:03:15;;;;;;;4.43;2.57;;;4.20;99.90;;;;;;4996895;28;20441;-62
2022/04/09 05:05:43;;;;;;;4.27;2.70;;;4.10;99.90;;;;;;4996930;28;20618;-61
2022/04/09 05:08:12;;;;;;;7.80;2.40;;;4.10;99.90;;;;;;4996934;28;20482;-61
2022/04/09 05:10:39;;;;;;;3.67;2.77;;;4.10;99.90;;;;;;4996788;28;21005;-62
2022/04/09 05:13:06;;;;;;;3.30;2.60;;;4.20;99.90;;;;;;4996971;28;20520;-62
2022/04/09 05:15:33;;;;;;;3.30;2.00;;;4.20;99.90;;;;;;4996712;28;20545;-62
2022/04/09 05:18:04;;;;;;;4.93;2.23;;;4.20;99.90;;;;;;4996600;28;20784;-62
2022/04/09 05:20:31;;;;;;;5.40;2.40;;;4.20;99.90;;;;;;4997652;28;20457;-61
2022/04/09 05:22:59;;;;;;;6.07;2.13;;;4.10;99.90;;;;;;4996983;28;20516;-61
2022/04/09 05:25:26;;;;;;;5.97;2.83;;;4.20;99.90;;;;;;4996729;28;20813;-62
2022/04/09 05:27:52;;;;;;;4.80;2.17;;;4.20;99.90;;;;;;4996720;28;20460;-62
2022/04/09 05:30:19;;;;;;;2.70;1.90;;;4.20;99.90;;;;;;4996656;28;20504;-63
2022/04/09 05:32:47;;;;;;;8.10;2.43;;;4.30;99.90;;;;;;4996229;28;20477;-63
2022/04/09 05:35:14;;;;;;;6.17;2.20;;;4.30;99.90;;;;;;4996936;28;20458;-61
2022/04/09 05:37:44;;;;;;;6.20;2.67;;;4.20;99.90;;;;;;4996516;28;20817;-61
2022/04/09 05:40:13;;;;;;;9.07;1.80;;;4.20;99.90;;;;;;4996122;28;20501;-61
2022/04/09 05:42:40;;;;;;;3.40;2.30;;;4.20;99.90;;;;;;4996331;28;20466;-61
2022/04/09 05:45:07;;;;;;;3.60;1.93;;;4.30;99.90;;;;;;4996577;28;20446;-63
2022/04/09 05:47:34;;;;;;;5.07;2.60;;;4.30;99.90;;;;;;4996483;28;20471;-64
2022/04/09 05:50:01;;;;;;;8.47;2.63;;;4.30;99.90;;;;;;4996569;28;20551;-63
2022/04/09 05:52:28;;;;;;;4.03;1.90;;;4.20;99.90;;;;;;4996262;28;20470;-64
2022/04/09 05:54:54;;;;;;;10.40;2.70;;;4.30;99.90;;;;;;4996082;28;20450;-64
2022/04/09 05:57:22;;;;;;;2.50;2.00;;;4.30;99.90;;;;;;4996171;28;20964;-62
2022/04/09 05:59:49;;;;;;;8.03;2.20;;;4.40;99.90;;;;;;4996411;28;20454;-62
2022/04/09 06:02:16;;;;;;;3.27;2.23;;;4.50;99.90;;;;;;4996043;28;20478;-61
2022/04/09 06:04:42;;;;;;;3.20;1.97;;;4.60;99.90;;;;;;4996147;28;20450;-61
2022/04/09 06:07:13;;;;;;;2.80;1.87;;;4.60;99.90;;;;;;4995667;28;21002;-60
2022/04/09 06:09:40;;;;;;;5.17;2.30;;;4.70;99.90;;;;;;4996009;28;20470;-62
2022/04/09 06:12:07;;;;;;;3.00;2.07;;;4.70;99.90;;;;;;4995807;28;20473;-58
2022/04/09 06:14:35;;;;;;;2.43;1.73;;;4.80;99.90;;;;;;4995858;28;20450;-62
2022/04/09 06:17:02;;;;;;;7.03;2.27;;;4.80;99.90;;;;;;4995894;28;20474;-64
2022/04/09 06:19:31;;;;;;;5.73;1.60;;;4.80;99.90;;;;;;4995733;28;20516;-62
2022/04/09 06:21:57;;;;;;;7.57;2.07;;;4.70;99.90;;;;;;4995810;28;20544;-63
2022/04/09 06:24:24;;;;;;;9.20;4.30;;;4.70;99.90;;;;;;4996042;28;20925;-61
2022/04/09 06:26:51;;;;;;;2.67;1.63;;;4.70;99.90;;;;;;4995915;28;20482;-64
2022/04/09 06:29:18;;;;;;;2.80;1.93;;;4.80;99.90;;;;;;4995630;28;20477;-63
2022/04/09 06:31:47;;;;;;;7.90;2.53;;;4.90;99.90;;;;;;4995782;28;20478;-61
2022/04/09 06:34:14;;;;;;;8.53;2.57;;;4.90;99.90;;;;;;4995520;28;20458;-61
2022/04/09 06:36:40;;;;;;;3.40;2.30;;;4.90;99.90;;;;;;4995694;28;20449;-62
2022/04/09 06:39:07;;;;;;;5.40;2.30;;;5.00;99.90;;;;;;4996376;28;20465;-61
2022/04/09 06:41:35;;;;;;;4.27;2.20;;;5.00;99.90;;;;;;4995727;28;20544;-62
2022/04/09 06:44:02;;;;;;;14.20;2.97;;;5.00;99.90;;;;;;4995618;28;20438;-63
2022/04/09 06:46:28;;;;;;;2.50;2.20;;;5.00;99.90;;;;;;4998156;28;20468;-62
2022/04/09 06:48:56;;;;;;;5.10;2.30;;;5.10;99.90;;;;;;4999683;28;20481;-62
2022/04/09 06:51:23;;;;;;;7.80;2.80;;;5.20;99.90;;;;;;4999784;28;20446;-65
2022/04/09 06:53:50;;;;;;;6.60;2.70;;;5.30;99.90;;;;;;4999743;28;20482;-63
2022/04/09 06:56:16;;;;;;;3.40;2.20;;;5.30;99.90;;;;;;4999476;28;20461;-61
2022/04/09 06:58:43;;;;;;;5.10;1.60;;;5.40;99.90;;;;;;4999312;28;20457;-61
2022/04/09 07:01:10;;;;;;;7.83;2.00;;;5.40;99.90;;;;;;4999413;28;20523;-61
2022/04/09 07:03:37;;;;;;;4.87;2.83;;;5.50;99.90;;;;;;4999176;28;20453;-61
2022/04/09 07:06:05;;;;;;;7.63;2.33;;;5.50;99.90;;;;;;4999519;28;20465;-62
2022/04/09 07:08:31;;;;;;;5.90;2.37;;;5.50;99.90;;;;;;4999026;28;20445;-61
2022/04/09 07:10:58;;;;;;;5.37;2.80;;;5.60;99.90;;;;;;4999196;28;20446;-60
2022/04/09 07:13:25;;;;;;;8.50;2.47;;;5.60;99.90;;;;;;4999171;28;20515;-62
2022/04/09 07:15:51;;;;;;;2.57;2.37;;;5.70;99.90;;;;;;4999018;28;20456;-62
2022/04/09 07:18:18;;;;;;;6.03;2.30;;;5.70;99.90;;;;;;4998711;28;20823;-62
2022/04/09 07:20:45;;;;;;;9.73;2.63;;;5.90;99.90;;;;;;4999140;28;20516;-62
2022/04/09 07:23:13;;;;;;;5.73;2.43;;;6.00;99.90;;;;;;4998847;28;20466;-61
2022/04/09 07:25:42;;;;;;;5.50;2.47;;;6.10;99.90;;;;;;4998947;28;20449;-61
2022/04/09 07:28:09;;;;;;;6.00;2.03;;;6.30;99.90;;;;;;4998881;28;20473;-62
2022/04/09 07:30:36;;;;;;;10.30;2.47;;;6.50;99.90;;;;;;4998521;28;21010;-63
2022/04/09 07:33:02;;;;;;;4.73;2.20;;;6.60;99.90;;;;;;4998614;28;20511;-64
2022/04/09 07:35:29;;;;;;;3.67;2.03;;;6.60;99.90;;;;;;4998677;28;20461;-61
2022/04/09 07:37:58;;;;;;;6.97;2.90;;;6.60;99.90;;;;;;4998473;28;20543;-62
2022/04/09 07:40:28;;;;;;;6.67;2.27;;;6.70;99.90;;;;;;4998829;28;20504;-65
2022/04/09 07:42:56;;;;;;;8.70;1.70;;;6.80;99.90;;;;;;4998327;28;20816;-61
2022/04/09 07:45:24;;;;;;;2.20;2.00;;;6.80;99.90;;;;;;4998811;28;20484;-63
2022/04/09 07:47:53;;;;;;;8.63;1.50;;;6.70;99.90;;;;;;4998613;28;20477;-62
2022/04/09 07:50:21;;;;;;;8.53;2.00;;;6.60;99.90;;;;;;4998678;28;20576;-65
2022/04/09 07:52:48;;;;;;;5.33;2.40;;;6.50;99.90;;;;;;4998500;28;20508;-65
2022/04/09 07:55:16;;;;;;;2.90;2.40;;;6.50;99.90;;;;;;4998395;28;20450;-63
2022/04/09 07:57:45;;;;;;;3.70;2.60;;;6.60;99.90;;;;;;4997941;28;20787;-62
2022/04/09 08:00:12;;;;;;;10.40;3.40;;;6.70;99.90;;;;;;4998257;28;20446;-63
2022/04/09 08:02:39;;;;;;;3.00;1.90;;;6.70;99.90;;;;;;4997845;28;20478;-63
2022/04/09 08:05:07;;;;;;;10.10;2.40;;;6.80;99.90;;;;;;4998159;28;20446;-63
2022/04/09 08:07:34;;;;;;;8.70;2.90;;;6.70;99.90;;;;;;4997970;28;20474;-58
2022/04/09 08:10:01;;;;;;;4.60;2.10;;;6.60;99.90;;;;;;4998034;28;20524;-66
2022/04/09 08:12:27;;;;;;;2.40;2.07;;;7.20;99.90;;;;;;4997832;28;20446;-65
2022/04/09 08:14:55;;;;;;;2.20;1.60;;;8.00;99.90;;;;;;4998133;28;20473;-62
2022/04/09 08:17:22;;;;;;;4.13;2.40;;;8.40;99.90;;;;;;4997890;28;20449;-62
2022/04/09 08:19:48;;;;;;;3.37;1.50;;;8.60;99.90;;;;;;4998096;28;20485;-62
2022/04/09 08:22:16;;;;;;;6.00;2.20;;;8.70;99.90;;;;;;4997820;28;20524;-63
2022/04/09 08:24:44;;;;;;;5.80;1.90;;;8.20;99.90;;;;;;4997587;28;20939;-63
2022/04/09 08:27:11;;;;;;;5.10;2.13;;;8.20;99.90;;;;;;4997805;28;20450;-61
2022/04/09 08:29:38;;;;;;;4.20;1.83;;;9.50;99.90;;;;;;4997632;28;20489;-62
2022/04/09 08:32:07;;;;;;;4.70;2.00;;;10.20;99.90;;;;;;4997953;28;20446;-61
2022/04/09 08:34:35;;;;;;;3.83;1.87;;;10.70;99.90;;;;;;4997467;28;20454;-61
2022/04/09 08:37:02;;;;;;;3.67;1.30;;;10.50;99.90;;;;;;4997614;28;20461;-63
2022/04/09 08:39:29;;;;;;;3.47;2.10;;;10.60;99.90;;;;;;4997719;28;20446;-63
2022/04/09 08:41:58;;;;;;;6.80;2.13;;;10.10;99.90;;;;;;4997330;28;20446;-62
2022/04/09 08:44:25;;;;;;;4.57;1.73;;;9.80;99.90;;;;;;4997199;28;20777;-60
2022/04/09 08:46:51;;;;;;;11.87;3.00;;;9.70;99.90;;;;;;4997512;28;20516;-62
2022/04/09 08:49:20;;;;;;;4.33;1.70;;;9.80;99.90;;;;;;4997287;28;20805;-62
2022/04/09 08:51:47;;;;;;;5.17;1.43;;;9.50;99.90;;;;;;4997305;28;20453;-63
2022/04/09 08:54:14;;;;;;;4.00;1.73;;;9.40;99.90;;;;;;4996987;28;20450;-61
2022/04/09 08:56:41;;;;;;;3.00;1.47;;;10.00;99.90;;;;;;4997257;28;20844;-62
2022/04/09 08:59:08;;;;;;;2.67;2.10;;;9.80;99.90;;;;;;4997060;28;20470;-60
2022/04/09 09:01:34;;;;;;;2.40;1.60;;;9.90;99.90;;;;;;4997129;28;20450;-59
2022/04/09 09:04:02;;;;;;;2.83;1.37;;;10.40;99.90;;;;;;4996982;28;20473;-65
2022/04/09 09:06:31;;;;;;;2.40;1.33;;;11.50;99.90;;;;;;4997106;28;20528;-68
2022/04/09 09:09:00;;;;;;;3.03;1.43;;;12.00;96.80;;;;;;4996282;28;20474;-62
2022/04/09 09:11:28;;;;;;;7.70;1.57;;;12.80;94.70;;;;;;4996982;28;20536;-58
2022/04/09 09:13:57;;;;;;;10.93;2.10;;;13.10;92.70;;;;;;4996776;28;20474;-61
2022/04/09 09:16:26;;;;;;;5.00;2.10;;;13.40;90.60;;;;;;4996581;28;20921;-58
2022/04/09 09:18:54;;;;;;;3.17;2.17;;;13.70;89.10;;;;;;4996796;28;20484;-61
2022/04/09 09:21:23;;;;;;;4.13;1.90;;;13.20;87.30;;;;;;4996843;28;20461;-58
2022/04/09 09:23:52;;;;;;;3.53;1.97;;;12.10;88.20;;;;;;4996465;28;20629;-59
2022/04/09 09:26:24;;;;;;;7.37;2.47;;;11.70;90.30;;;;;;4996585;28;20525;-57
2022/04/09 09:28:57;;;;;;;6.20;1.97;;;12.20;88.50;;;;;;4996756;28;20532;-56
2022/04/09 09:31:40;;;;;;;3.30;1.67;;;12.50;88.10;;;;;;4996686;28;20856;-58
2022/04/09 09:34:11;;;;;;;7.33;2.20;;;13.60;87.10;;;;;;4996351;28;20875;-60
2022/04/09 09:36:40;;;;;;;5.10;2.23;;;13.60;82.40;;;;;;4996505;28;20450;-61
2022/04/09 09:39:09;;;;;;;3.67;1.87;;;13.20;82.30;;;;;;4996457;28;20478;-60
2022/04/09 09:41:46;;;;;;;5.17;1.90;;;13.50;81.70;;;;;;4996144;28;20450;-62
2022/04/09 09:44:12;;;;;;;2.60;1.60;;;13.50;76.30;;;;;;4996289;28;20469;-60
2022/04/09 09:46:39;;;;;;;5.13;1.43;;;13.40;77.30;;;;;;4996277;28;20446;-59
2022/04/09 09:49:06;;;;;;;2.80;1.70;;;13.40;74.70;;;;;;4996088;28;20941;-62
2022/04/09 09:51:33;;;;;;;6.00;1.93;;;12.70;72.60;;;;;;4996140;28;20481;-60
2022/04/09 09:54:08;;;;;;;5.17;1.83;;;12.20;74.80;;;;;;4996172;28;20473;-60
2022/04/09 09:56:38;;;;;;;6.70;1.60;;;12.30;77.10;;;;;;4996216;28;20754;-59
2022/04/09 09:59:06;;;;;;;4.07;2.00;;;12.20;77.80;;;;;;4995958;28;20565;-59
2022/04/09 10:01:36;;;;;;;4.53;1.50;;;11.50;78.30;;;;;;4995777;28;20536;-61
2022/04/09 10:04:04;;;;;;;5.20;1.97;;;11.60;78.10;;;;;;4995974;28;20465;-61
2022/04/09 10:06:32;;;;;;;5.97;1.60;;;11.20;80.20;;;;;;4995835;28;20489;-58
2022/04/09 10:08:59;;;;;;;1.73;1.40;;;11.50;80.80;;;;;;4995618;28;20469;-63
2022/04/09 10:11:28;;;;;;;5.87;1.60;;;11.70;79.40;;;;;;4995977;28;20787;-60
2022/04/09 10:13:57;;;;;;;2.47;1.70;;;11.30;80.40;;;;;;4995860;28;20568;-60
2022/04/09 10:16:27;;;;;;;4.23;1.53;;;11.40;80.30;;;;;;4996049;28;20449;-56
2022/04/09 10:18:58;;;;;;;3.40;1.93;;;11.80;79.20;;;;;;4995765;28;21017;-62
2022/04/09 10:21:26;;;;;;;2.63;1.33;;;12.10;79.00;;;;;;4995007;28;20438;-60
2022/04/09 10:23:54;;;;;;;1.93;1.50;;;12.20;76.00;;;;;;4995655;28;20564;-59
2022/04/09 10:26:21;;;;;;;2.80;1.40;;;12.20;75.60;;;;;;4995824;28;20442;-63
2022/04/09 10:28:51;;;;;;;5.67;2.63;;;12.30;73.70;;;;;;4995493;28;20495;-58
2022/04/09 10:31:34;;;;;;;4.67;1.60;;;12.00;74.20;;;;;;4995399;28;20833;-62
2022/04/09 10:34:01;;;;;;;4.03;2.20;;;11.70;77.10;;;;;;4993504;28;20486;-61
2022/04/09 10:37:03;;;;;;;2.87;1.40;;;11.30;76.90;;;;;;4995555;28;20492;-61
2022/04/09 10:39:46;;;;;;;1.57;1.33;;;10.90;77.20;;;;;;4995535;28;20565;-59
2022/04/09 10:42:47;;;;;;;6.03;2.00;;;10.40;80.00;;;;;;4993603;28;20508;-60
2022/04/09 10:45:16;;;;;;;5.60;2.00;;;10.10;83.00;;;;;;4995466;28;20468;-60
2022/04/09 10:48:10;;;;;;;3.63;1.63;;;9.80;85.90;;;;;;4995207;28;20924;-60
2022/04/09 10:50:58;;;;;;;4.27;1.90;;;9.80;87.90;;;;;;4995277;28;20549;-65
2022/04/09 10:53:27;;;;;;;3.50;1.33;;;10.00;85.70;;;;;;4995378;28;20453;-61
2022/04/09 10:56:13;;;;;;;1.77;1.30;;;10.10;86.30;;;;;;4995663;28;20438;-61
2022/04/09 10:58:59;;;;;;;2.80;1.30;;;10.10;83.70;;;;;;4995279;28;20476;-61
2022/04/09 11:01:52;;;;;;;11.43;2.00;;;10.20;85.00;;;;;;4995201;28;20430;-63
2022/04/09 11:04:42;;;;;;;1.80;1.20;;;10.30;85.30;;;;;;4995153;28;20560;-66
2022/04/09 11:07:14;;;;;;;6.30;1.50;;;10.30;86.10;;;;;;4995193;28;20893;-61
2022/04/09 11:09:55;;;;;;;4.07;1.20;;;10.10;87.00;;;;;;4995221;28;20526;-59
2022/04/09 11:12:24;;;;;;;10.73;1.50;;;9.70;89.50;;;;;;4995384;28;20825;-59
2022/04/09 11:14:54;;;;;;;2.40;1.30;;;9.50;90.80;;;;;;4995188;28;20873;-60
2022/04/09 11:17:27;;;;;;;4.37;1.60;;;9.40;91.80;;;;;;4995012;28;20465;-58
2022/04/09 11:19:54;;;;;;;8.67;2.10;;;9.90;92.70;;;;;;4995008;28;20470;-60
2022/04/09 11:22:22;;;;;;;2.30;1.33;;;10.40;91.50;;;;;;4995273;28;20453;-58
2022/04/09 11:24:48;;;;;;;2.63;1.47;;;10.90;89.70;;;;;;4995255;28;20539;-59
2022/04/09 11:27:16;;;;;;;1.93;1.23;;;11.10;83.90;;;;;;4995035;28;20462;-61
2022/04/09 11:29:43;;;;;;;1.57;1.10;;;10.90;83.20;;;;;;4995108;28;20545;-59
2022/04/09 11:32:20;;;;;;;2.47;1.27;;;10.70;84.20;;;;;;4996950;28;20822;-61
2022/04/09 11:34:53;;;;;;;2.67;1.13;;;10.60;84.40;;;;;;4998684;28;20481;-57
2022/04/09 11:37:20;;;;;;;2.13;1.53;;;10.60;81.10;;;;;;4998465;28;20871;-58
2022/04/09 11:39:49;;;;;;;2.80;1.37;;;10.40;83.00;;;;;;4998336;28;20956;-58
2022/04/09 11:42:16;;;;;;;3.90;1.83;;;10.40;81.60;;;;;;4998647;28;20850;-57
2022/04/09 11:44:43;;;;;;;3.00;1.87;;;10.50;82.50;;;;;;4998303;28;20469;-60
2022/04/09 11:47:12;;;;;;;3.87;1.77;;;10.60;82.90;;;;;;4998273;28;20504;-61
2022/04/09 11:49:39;;;;;;;3.30;1.40;;;10.30;81.20;;;;;;4998317;28;20470;-56
2022/04/09 11:52:08;;;;;;;1.57;1.17;;;10.20;83.30;;;;;;4999193;28;20548;-58
2022/04/09 11:54:35;;;;;;;3.60;1.30;;;10.20;85.20;;;;;;4998578;28;20466;-61
2022/04/09 11:57:03;;;;;;;8.60;1.57;;;10.20;85.40;;;;;;4998994;28;20552;-56
2022/04/09 11:59:31;;;;;;;1.87;1.17;;;10.30;88.80;;;;;;4998061;28;20484;-61
2022/04/09 12:01:58;;;;;;;1.77;1.00;;;10.50;89.80;;;;;;4997965;28;20449;-59
2022/04/09 12:04:32;;;;;;;2.50;1.00;;;10.60;91.00;;;;;;4998067;28;20532;-58
2022/04/09 12:06:59;;;;;;;1.00;0.83;;;10.70;91.30;;;;;;4998410;28;20445;-57
2022/04/09 12:09:27;;;;;;;2.43;1.17;;;10.60;90.70;;;;;;4998283;28;20490;-61
2022/04/09 12:11:55;;;;;;;1.93;0.90;;;10.70;92.10;;;;;;4997978;28;20534;-58
2022/04/09 12:14:24;;;;;;;3.33;1.87;;;10.70;91.00;;;;;;4998159;28;20540;-59
2022/04/09 12:16:50;;;;;;;2.50;1.00;;;10.80;91.50;;;;;;4997868;28;20862;-57
2022/04/09 12:19:28;;;;;;;1.80;1.03;;;11.00;92.00;;;;;;4997949;28;20537;-54
2022/04/09 12:21:54;;;;;;;5.17;1.37;;;11.00;91.00;;;;;;4998242;28;20484;-58
2022/04/09 12:24:21;;;;;;;1.60;1.00;;;11.10;90.70;;;;;;4998136;28;20453;-57
2022/04/09 12:26:57;;;;;;;2.33;1.23;;;11.00;90.50;;;;;;4997888;28;20492;-56
2022/04/09 12:29:26;;;;;;;5.50;1.10;;;10.90;90.30;;;;;;4997734;28;20445;-56
2022/04/09 12:32:13;;;;;;;2.47;1.33;;;10.80;90.50;;;;;;4997996;28;20808;-57
2022/04/09 12:34:52;;;;;;;2.27;0.80;;;10.50;90.50;;;;;;4997678;28;20531;-56
2022/04/09 12:37:19;;;;;;;1.30;1.10;;;10.40;92.50;;;;;;4997644;28;20442;-58
2022/04/09 12:39:46;;;;;;;2.10;1.20;;;10.60;92.70;;;;;;4997473;28;20476;-57
2022/04/09 12:42:15;;;;;;;4.60;2.20;;;10.50;92.60;;;;;;4997461;28;20441;-55
2022/04/09 12:44:43;;;;;;;3.17;1.23;;;10.40;92.90;;;;;;4979866;28;20537;-59
2022/04/09 12:47:10;;;;;;;1.60;1.07;;;10.20;94.20;;;;;;4997850;28;20541;-56
2022/04/09 12:49:37;;;;;;;1.00;0.80;;;10.20;93.90;;;;;;4997646;28;20469;-55
2022/04/09 12:52:06;;;;;;;1.00;0.60;;;10.40;93.90;;;;;;4997749;28;20516;-52
2022/04/09 12:54:33;;;;;;;1.20;0.90;;;10.40;94.60;;;;;;4997206;28;20909;-56
2022/04/09 12:57:05;;;;;;;6.20;0.90;;;10.30;94.80;;;;;;4997144;28;20430;-54
2022/04/09 12:59:34;;;;;;;1.77;1.00;;;10.10;95.10;;;;;;4997933;28;20477;-60